This is the latest recevied weather packets stored in our database for station/object YREN. If no packets are shown the sender has not sent any weather packets the latest 10 day(s).
| Time | Temp. | Humidity | Pressure | Rain* | Wind** | Luminosity | Snow |
|---|---|---|---|---|---|---|---|
| 1788134704 | 59° F | 71% | 773.5 mmHg | 0 in | - | - | - |
| 1788133803 | 56° F | 77% | 773.5 mmHg | 0 in | - | - | - |
| 1788132903 | 56° F | 77% | 773.5 mmHg | 0 in | - | - | - |
| 1788132004 | 52° F | 86% | 773.8 mmHg | 0 in | - | - | - |
| 1788131103 | 52° F | 86% | 773.8 mmHg | 0 in | - | - | - |
| 1788130204 | 46° F | 98% | 773.8 mmHg | 0 in | - | - | - |
| 1788129304 | 46° F | 98% | 773.8 mmHg | 0 in | - | - | - |
| 1788128403 | 40° F | 97% | 773.8 mmHg | 0 in | - | - | - |
| 1788127503 | 40° F | 97% | 773.8 mmHg | 0 in | - | - | - |
| 1788126603 | 36° F | 96% | 773.5 mmHg | 0 in | - | - | - |
| 1788125704 | 36° F | 96% | 773.5 mmHg | 0 in | - | - | - |
| 1788124803 | 35° F | 94% | 773.5 mmHg | 0 in | - | - | - |
| 1788123903 | 35° F | 94% | 773.2 mmHg | 0 in | - | - | - |
| 1788123003 | 35° F | 94% | 773.2 mmHg | 0 in | - | - | - |
| 1788122103 | 35° F | 94% | 773.2 mmHg | 0 in | - | - | - |
| 1788121204 | 35° F | 94% | 773.2 mmHg | 0 in | - | - | - |
| 1788120304 | 36° F | 95% | 773.1 mmHg | 0 in | - | - | - |
| 1788119403 | 36° F | 95% | 773.1 mmHg | 0 in | - | - | - |
| 1788118503 | 36° F | 95% | 773.1 mmHg | 0 in | - | - | - |
| 1788117603 | 36° F | 94% | 773.1 mmHg | 0 in | - | - | - |
| 1788116703 | 36° F | 94% | 773.1 mmHg | 0 in | - | - | - |
| 1788115804 | 36° F | 93% | 773.1 mmHg | 0 in | - | - | - |
| 1788114904 | 36° F | 93% | 773.1 mmHg | 0 in | - | - | - |
| 1788114003 | 37° F | 94% | 773.2 mmHg | 0 in | - | - | - |
| 1788113103 | 37° F | 94% | 773.2 mmHg | 0 in | - | - | - |
* Rain latest hour (hover to see other rain measurements)
** Current wind speed in m/s (hover to see current wind gust speed)